createdAt,value
2022-10-17T00:00:41.163Z,100082.66
2022-10-17T00:03:42.866Z,100088.84
2022-10-17T00:06:44.579Z,100092.59
2022-10-17T00:09:46.411Z,100085.94
2022-10-17T00:12:48.354Z,100086.75
2022-10-17T00:15:50.060Z,100089.81
2022-10-17T00:18:52.144Z,100092.03
2022-10-17T00:21:53.910Z,100091.72
2022-10-17T00:24:55.738Z,100090.44
2022-10-17T00:27:57.483Z,100090.44
2022-10-17T00:31:01.280Z,100094.78
2022-10-17T00:34:03.016Z,100101.41
2022-10-17T00:37:04.727Z,100098.56
2022-10-17T00:40:07.442Z,100098.91
2022-10-17T00:43:18.446Z,100094.47
2022-10-17T00:46:21.477Z,100107.84
2022-10-17T00:49:26.464Z,100110.03
2022-10-17T00:52:31.113Z,100107.66
2022-10-17T00:55:45.199Z,100110.03
2022-10-17T00:58:48.018Z,100109.34
2022-10-17T01:02:15.702Z,100099.13
2022-10-17T01:05:19.349Z,100098.91
2022-10-17T01:08:21.271Z,100094.31
2022-10-17T01:11:45.664Z,100094.19
2022-10-17T01:15:08.858Z,100098.44
2022-10-17T01:18:39.561Z,100096.00
2022-10-17T01:21:55.058Z,100088.44
2022-10-17T01:25:41.114Z,100089.91
2022-10-17T01:29:01.458Z,100088.22
2022-10-17T01:32:14.934Z,100082.22
2022-10-17T01:35:25.388Z,100089.66
2022-10-17T01:38:34.651Z,100082.41
2022-10-17T01:41:50.512Z,100092.25
2022-10-17T01:45:10.778Z,100088.66
2022-10-17T01:48:21.722Z,100097.50
2022-10-17T01:51:30.684Z,100093.16
2022-10-17T01:54:47.411Z,100096.50
2022-10-17T01:57:57.564Z,100088.28
2022-10-17T02:01:06.208Z,100090.22
2022-10-17T02:04:09.980Z,100095.56
2022-10-17T02:07:13.399Z,100083.50
2022-10-17T02:10:32.207Z,100088.00
2022-10-17T02:14:13.504Z,100081.44
2022-10-17T02:17:36.685Z,100089.22
2022-10-17T02:20:54.552Z,100093.59
2022-10-17T02:24:07.715Z,100090.00
2022-10-17T02:27:21.585Z,100083.44
2022-10-17T02:30:47.057Z,100089.75
2022-10-17T02:34:10.107Z,100092.00
2022-10-17T02:37:15.822Z,100084.19
2022-10-17T02:40:21.513Z,100086.47
2022-10-17T02:43:23.987Z,100086.47
2022-10-17T02:46:28.679Z,100091.56
2022-10-17T02:49:36.136Z,100087.91
2022-10-17T02:52:52.965Z,100089.28
2022-10-17T02:55:58.963Z,100091.53
2022-10-17T02:59:03.243Z,100089.31
2022-10-17T03:02:06.750Z,100092.41
2022-10-17T03:05:10.740Z,100089.31
2022-10-17T03:08:12.988Z,100093.56
2022-10-17T03:11:14.710Z,100098.59
2022-10-17T03:14:16.643Z,100093.56
2022-10-17T03:17:18.417Z,100101.13
2022-10-17T03:20:20.707Z,100103.94
2022-10-17T03:23:22.461Z,100100.56
2022-10-17T03:26:24.554Z,100099.31
2022-10-17T03:29:26.742Z,100097.94
2022-10-17T03:32:29.325Z,100111.06
2022-10-17T03:35:31.252Z,100098.63
2022-10-17T03:38:34.544Z,100112.91
2022-10-17T03:41:36.505Z,100119.47
2022-10-17T03:44:38.323Z,100117.78
2022-10-17T03:47:40.095Z,100118.06
2022-10-17T03:50:41.912Z,100123.53
2022-10-17T03:53:43.755Z,100122.84
2022-10-17T03:56:45.773Z,100134.41
2022-10-17T03:59:52.691Z,100134.72
2022-10-17T04:02:55.658Z,100137.78
2022-10-17T04:06:02.436Z,100146.19
2022-10-17T04:09:07.719Z,100151.50
2022-10-17T04:12:27.881Z,100146.28
2022-10-17T04:15:31.120Z,100143.19
2022-10-17T04:18:33.433Z,100149.06
2022-10-17T04:21:35.244Z,100152.97
2022-10-17T04:24:41.084Z,100152.38
2022-10-17T04:27:54.516Z,100151.94
2022-10-17T04:31:18.628Z,100153.38
2022-10-17T04:34:40.710Z,100158.53
2022-10-17T04:37:42.696Z,100165.06
2022-10-17T04:40:51.264Z,100154.56
2022-10-17T04:43:53.506Z,100158.09
2022-10-17T04:46:56.108Z,100158.19
2022-10-17T04:49:57.953Z,100163.50
2022-10-17T04:52:59.978Z,100158.34
2022-10-17T04:56:07.186Z,100165.88
2022-10-17T04:59:08.893Z,100173.25
2022-10-17T05:02:12.828Z,100170.34
2022-10-17T05:05:14.850Z,100173.16
2022-10-17T05:08:18.665Z,100183.78
2022-10-17T05:11:25.762Z,100184.31
2022-10-17T05:14:28.228Z,100187.97
2022-10-17T05:17:29.965Z,100190.47
2022-10-17T05:20:32.644Z,100201.09
2022-10-17T05:23:35.331Z,100209.22
2022-10-17T05:26:37.352Z,100209.81
2022-10-17T05:29:39.767Z,100208.56
2022-10-17T05:32:53.405Z,100222.16
2022-10-17T05:35:56.631Z,100224.66
2022-10-17T05:38:59.259Z,100224.53
2022-10-17T05:42:02.443Z,100228.75
2022-10-17T05:45:05.073Z,100237.69
2022-10-17T05:48:08.990Z,100253.25
2022-10-17T05:51:11.459Z,100259.47
2022-10-17T05:54:15.220Z,100257.94
2022-10-17T05:57:17.036Z,100259.41
2022-10-17T06:00:19.578Z,100264.59
2022-10-17T06:03:28.892Z,100257.63
2022-10-17T06:06:31.123Z,100264.53
2022-10-17T06:09:33.113Z,100259.34
2022-10-17T06:12:34.940Z,100275.22
2022-10-17T06:15:37.081Z,100281.41
2022-10-17T06:18:45.023Z,100284.34
2022-10-17T06:21:47.368Z,100282.13
2022-10-17T06:24:54.152Z,100283.84
2022-10-17T06:27:55.982Z,100289.00
2022-10-17T06:30:58.035Z,100290.41
2022-10-17T06:33:59.923Z,100297.56
2022-10-17T06:37:01.896Z,100302.19
2022-10-17T06:40:06.060Z,100296.16
2022-10-17T06:43:07.904Z,100300.94
2022-10-17T06:46:32.480Z,100304.25
2022-10-17T06:49:37.009Z,100295.13
2022-10-17T06:52:52.320Z,100292.00
2022-10-17T06:56:13.567Z,100299.78
2022-10-17T06:59:41.319Z,100305.22
2022-10-17T07:02:51.162Z,100308.09
2022-10-17T07:05:54.243Z,100307.22
2022-10-17T07:08:56.377Z,100313.06
2022-10-17T07:11:58.862Z,100310.44
2022-10-17T07:15:01.079Z,100300.22
2022-10-17T07:18:03.181Z,100310.28
2022-10-17T07:21:05.469Z,100305.81
2022-10-17T07:24:07.683Z,100316.19
2022-10-17T07:27:10.696Z,100308.00
2022-10-17T07:30:12.804Z,100305.25
2022-10-17T07:33:21.859Z,100312.19
2022-10-17T07:36:24.401Z,100308.97
2022-10-17T07:39:26.434Z,100319.81
2022-10-17T07:42:28.667Z,100321.19
2022-10-17T07:45:30.663Z,100311.81
2022-10-17T07:48:32.723Z,100315.22
2022-10-17T07:51:34.888Z,100313.38
2022-10-17T07:54:36.601Z,100315.84
2022-10-17T07:57:40.242Z,100324.78
2022-10-17T08:00:42.159Z,100314.97
2022-10-17T08:03:45.317Z,100308.91
2022-10-17T08:06:47.142Z,100314.22
2022-10-17T08:09:48.851Z,100306.25
2022-10-17T08:12:50.604Z,100306.13
2022-10-17T08:15:52.463Z,100302.28
2022-10-17T08:18:54.232Z,100301.56
2022-10-17T08:21:58.363Z,100295.28
2022-10-17T08:25:02.868Z,100292.84
2022-10-17T08:28:05.006Z,100299.16
2022-10-17T08:31:09.709Z,100285.41
2022-10-17T08:34:11.596Z,100277.25
2022-10-17T08:37:13.872Z,100268.34
2022-10-17T08:40:21.019Z,100268.72
2022-10-17T08:43:41.064Z,100271.56
2022-10-17T08:46:46.980Z,100266.88
2022-10-17T08:49:53.265Z,100255.38
2022-10-17T08:53:02.900Z,100252.91
2022-10-17T08:56:19.994Z,100238.16
2022-10-17T08:59:30.760Z,100229.78
2022-10-17T09:02:50.196Z,100237.75
2022-10-17T09:06:00.233Z,100229.16
2022-10-17T09:09:16.985Z,100233.19
2022-10-17T09:13:05.357Z,100228.03
2022-10-17T09:16:39.062Z,100234.50
2022-10-17T09:19:49.300Z,100230.03
2022-10-17T09:23:01.128Z,100217.59
2022-10-17T09:26:02.919Z,100217.72
2022-10-17T09:29:15.700Z,100220.75
2022-10-17T09:32:24.544Z,100224.75
2022-10-17T09:35:28.390Z,100221.31
2022-10-17T09:38:39.136Z,100220.44
2022-10-17T09:41:46.837Z,100215.84
2022-10-17T09:45:15.545Z,100212.59
2022-10-17T09:48:22.942Z,100221.63
2022-10-17T09:51:26.380Z,100218.78
2022-10-17T09:54:39.667Z,100220.06
2022-10-17T09:57:58.814Z,100222.81
2022-10-17T10:01:21.101Z,100213.88
2022-10-17T10:04:30.220Z,100220.75
2022-10-17T10:07:39.438Z,100224.34
2022-10-17T10:10:44.708Z,100214.31
2022-10-17T10:13:49.784Z,100218.47
2022-10-17T10:16:53.780Z,100222.84
2022-10-17T10:19:56.185Z,100211.78
2022-10-17T10:23:18.603Z,100230.09
2022-10-17T10:26:24.347Z,100223.84
2022-10-17T10:29:32.201Z,100224.22
2022-10-17T10:32:37.064Z,100211.66
2022-10-17T10:35:41.939Z,100222.50
2022-10-17T10:38:53.617Z,100215.81
2022-10-17T10:41:55.502Z,100214.56
2022-10-17T10:45:29.659Z,100202.38
2022-10-17T10:48:37.728Z,100205.28
2022-10-17T10:51:48.046Z,100200.22
2022-10-17T10:55:14.752Z,100193.38
2022-10-17T10:58:41.953Z,100196.88
2022-10-17T11:01:53.638Z,100197.53
2022-10-17T11:05:04.879Z,100201.47
2022-10-17T11:08:28.848Z,100196.84
2022-10-17T11:11:39.346Z,100198.97
2022-10-17T11:15:20.225Z,100190.19
2022-10-17T11:18:33.349Z,100184.72
2022-10-17T11:21:48.528Z,100195.22
2022-10-17T11:24:59.700Z,100197.28
2022-10-17T11:28:05.142Z,100194.34
2022-10-17T11:31:12.741Z,100191.34
2022-10-17T11:34:29.594Z,100183.81
2022-10-17T11:37:36.795Z,100179.94
2022-10-17T11:40:43.818Z,100168.38
2022-10-17T11:43:57.033Z,100177.31
2022-10-17T11:47:07.919Z,100180.03
2022-10-17T11:54:12.115Z,100179.44
2022-10-17T11:57:37.274Z,100176.09
2022-10-17T12:00:41.635Z,100176.09
2022-10-17T12:03:56.444Z,100173.16
2022-10-17T12:07:16.741Z,100175.03
2022-10-17T12:10:47.494Z,100167.75
2022-10-17T12:13:52.690Z,100158.00
2022-10-17T12:16:54.411Z,100163.03
2022-10-17T12:20:21.359Z,100159.41
2022-10-17T12:23:31.739Z,100161.50
2022-10-17T12:26:33.415Z,100160.44
2022-10-17T12:29:35.217Z,100164.19
2022-10-17T12:32:53.360Z,100163.78
2022-10-17T12:36:31.126Z,100160.63
2022-10-17T12:39:35.562Z,100158.78
2022-10-17T12:42:47.814Z,100151.84
2022-10-17T12:46:00.541Z,100154.97
2022-10-17T12:49:04.183Z,100152.25
2022-10-17T12:52:16.492Z,100148.88
2022-10-17T12:55:20.053Z,100146.00
2022-10-17T12:58:21.969Z,100140.78
2022-10-17T13:01:46.628Z,100139.44
2022-10-17T13:04:50.409Z,100143.59
2022-10-17T13:07:53.099Z,100145.50
2022-10-17T13:10:55.506Z,100155.72
2022-10-17T13:14:03.620Z,100149.03
2022-10-17T13:17:07.401Z,100150.13
2022-10-17T13:20:27.492Z,100151.03
2022-10-17T13:23:37.334Z,100155.34
2022-10-17T13:26:45.699Z,100149.75
2022-10-17T13:29:47.683Z,100146.88
2022-10-17T13:32:49.573Z,100153.31
2022-10-17T13:36:06.687Z,100145.00
2022-10-17T13:39:16.879Z,100147.34
2022-10-17T13:42:31.771Z,100151.66
2022-10-17T13:45:37.733Z,100139.50
2022-10-17T13:48:39.485Z,100144.16
2022-10-17T13:51:46.604Z,100143.88
2022-10-17T13:54:53.914Z,100139.56
2022-10-17T13:57:55.666Z,100157.13
2022-10-17T14:00:58.116Z,100148.38
2022-10-17T14:04:09.246Z,100165.03
2022-10-17T14:07:58.166Z,100152.91
2022-10-17T14:10:57.896Z,100160.91
2022-10-17T14:14:01.672Z,100151.78
2022-10-17T14:17:03.517Z,100157.59
2022-10-17T14:20:47.849Z,100161.38
2022-10-17T14:23:39.303Z,100160.84
2022-10-17T14:26:52.782Z,100167.75
2022-10-17T14:29:57.857Z,100165.72
2022-10-17T14:33:03.554Z,100163.06
2022-10-17T14:36:05.566Z,100167.84
2022-10-17T14:39:16.958Z,100163.69
2022-10-17T14:42:23.162Z,100163.16
2022-10-17T14:45:34.139Z,100176.88
2022-10-17T14:48:36.588Z,100175.69
2022-10-17T14:51:50.377Z,100173.38
2022-10-17T14:55:12.189Z,100166.31
2022-10-17T14:58:18.913Z,100162.97
2022-10-17T15:01:20.643Z,100166.34
2022-10-17T15:04:22.356Z,100168.25
2022-10-17T15:07:24.326Z,100172.63
2022-10-17T15:10:32.924Z,100172.63
2022-10-17T15:13:41.048Z,100166.44
2022-10-17T15:16:45.228Z,100167.66
2022-10-17T15:19:48.071Z,100174.75
2022-10-17T15:22:49.762Z,100167.91
2022-10-17T15:25:51.456Z,100168.94
2022-10-17T15:28:54.109Z,100169.75
2022-10-17T15:31:55.846Z,100171.19
2022-10-17T15:34:57.588Z,100167.03
2022-10-17T15:37:59.727Z,100173.25
2022-10-17T15:41:01.580Z,100175.31
2022-10-17T15:44:03.321Z,100176.34
2022-10-17T15:47:05.775Z,100179.00
2022-10-17T15:50:08.879Z,100182.66
2022-10-17T15:53:13.876Z,100192.41
2022-10-17T15:56:24.959Z,100199.59
2022-10-17T15:59:32.072Z,100199.97
2022-10-17T16:02:34.259Z,100196.13
2022-10-17T16:05:36.117Z,100207.56
2022-10-17T16:08:37.803Z,100204.34
2022-10-17T16:11:42.174Z,100206.19
2022-10-17T16:14:44.007Z,100205.28
2022-10-17T16:17:45.980Z,100204.56
2022-10-17T16:20:47.896Z,100215.03
2022-10-17T16:23:49.624Z,100214.63
2022-10-17T16:26:51.378Z,100215.56
2022-10-17T16:29:53.096Z,100223.16
2022-10-17T16:32:55.733Z,100223.09
2022-10-17T16:35:57.974Z,100225.03
2022-10-17T16:38:59.805Z,100225.78
2022-10-17T16:42:01.499Z,100238.34
2022-10-17T16:45:03.957Z,100226.88
2022-10-17T16:48:06.104Z,100228.53
2022-10-17T16:51:08.018Z,100226.41
2022-10-17T16:54:09.956Z,100230.97
2022-10-17T16:57:11.688Z,100234.41
2022-10-17T17:00:14.155Z,100230.31
2022-10-17T17:03:15.856Z,100229.47
2022-10-17T17:06:24.327Z,100223.06
2022-10-17T17:09:26.145Z,100237.53
2022-10-17T17:12:27.864Z,100224.84
2022-10-17T17:15:29.604Z,100223.16
2022-10-17T17:18:31.722Z,100219.84
2022-10-17T17:21:34.569Z,100215.03
2022-10-17T17:24:36.281Z,100219.31
2022-10-17T17:27:37.952Z,100216.34
2022-10-17T17:30:39.708Z,100215.66
2022-10-17T17:33:42.672Z,100225.53
2022-10-17T17:36:44.396Z,100226.91
2022-10-17T17:39:46.059Z,100223.75
2022-10-17T17:42:47.832Z,100244.00
2022-10-17T17:45:49.874Z,100234.44
2022-10-17T17:48:53.581Z,100243.72
2022-10-17T17:51:55.367Z,100240.91
2022-10-17T17:54:57.100Z,100243.81
2022-10-17T17:57:59.079Z,100247.72
2022-10-17T18:01:01.965Z,100245.38
2022-10-17T18:04:05.951Z,100245.56
2022-10-17T18:07:07.682Z,100240.53
2022-10-17T18:13:16.768Z,100243.44
2022-10-17T18:16:18.524Z,100239.91
2022-10-17T18:19:20.238Z,100243.63
2022-10-17T18:22:23.099Z,100237.97
2022-10-17T18:25:24.856Z,100238.13
2022-10-17T18:28:27.050Z,100231.72
2022-10-17T18:31:32.048Z,100232.09
2022-10-17T18:34:33.738Z,100229.41
2022-10-17T18:37:35.486Z,100233.88
2022-10-17T18:40:37.436Z,100236.91
2022-10-17T18:43:41.182Z,100235.56
2022-10-17T18:46:43.203Z,100239.81
2022-10-17T18:49:44.965Z,100222.19
2022-10-17T18:52:47.920Z,100231.75
2022-10-17T18:55:51.214Z,100233.31
2022-10-17T18:58:53.155Z,100225.44
2022-10-17T19:01:54.891Z,100230.69
2022-10-17T19:04:56.630Z,100233.06
2022-10-17T19:07:58.438Z,100230.09
2022-10-17T19:11:11.088Z,100228.38
2022-10-17T19:14:13.482Z,100233.06
2022-10-17T19:17:15.532Z,100239.34
2022-10-17T19:20:17.259Z,100239.81
2022-10-17T19:23:19.115Z,100228.56
2022-10-17T19:26:21.938Z,100236.19
2022-10-17T19:29:26.516Z,100240.63
2022-10-17T19:32:28.298Z,100240.88
2022-10-17T19:35:30.298Z,100227.78
2022-10-17T19:38:32.797Z,100236.03
2022-10-17T19:41:36.384Z,100237.88
2022-10-17T19:44:38.102Z,100235.38
2022-10-17T19:47:40.186Z,100237.22
2022-10-17T19:50:44.449Z,100242.59
2022-10-17T19:53:46.641Z,100247.50
2022-10-17T19:56:48.519Z,100238.78
2022-10-17T19:59:51.340Z,100238.28
2022-10-17T20:02:55.396Z,100245.53
2022-10-17T20:05:57.192Z,100236.44
2022-10-17T20:08:59.043Z,100238.19
2022-10-17T20:12:00.719Z,100240.91
2022-10-17T20:15:02.536Z,100241.72
2022-10-17T20:18:05.874Z,100238.41
2022-10-17T20:21:10.407Z,100241.75
2022-10-17T20:24:14.617Z,100234.06
2022-10-17T20:27:16.432Z,100234.94
2022-10-17T20:30:18.255Z,100237.63
2022-10-17T20:33:20.562Z,100229.41
2022-10-17T20:36:23.525Z,100233.63
2022-10-17T20:39:25.398Z,100240.16
2022-10-17T20:42:28.027Z,100233.31
2022-10-17T20:45:43.803Z,100236.66
2022-10-17T20:48:53.169Z,100247.06
2022-10-17T20:51:55.087Z,100249.94
2022-10-17T20:54:56.766Z,100243.03
2022-10-17T20:57:58.999Z,100238.34
2022-10-17T21:01:10.935Z,100237.81
2022-10-17T21:04:45.316Z,100234.66
2022-10-17T21:07:34.905Z,100223.84
2022-10-17T21:10:36.605Z,100220.34
2022-10-17T21:13:38.954Z,100229.59
2022-10-17T21:16:41.504Z,100219.38
2022-10-17T21:19:43.587Z,100219.38
2022-10-17T21:22:45.529Z,100218.53
2022-10-17T21:25:47.326Z,100219.06
2022-10-17T21:28:49.381Z,100218.69
2022-10-17T21:31:51.598Z,100214.97
2022-10-17T21:34:53.357Z,100222.84
2022-10-17T21:37:55.039Z,100220.16
2022-10-17T21:40:56.775Z,100218.00
2022-10-17T21:44:05.109Z,100218.31
2022-10-17T21:47:06.768Z,100208.94
2022-10-17T21:50:08.845Z,100199.69
2022-10-17T21:53:10.682Z,100208.09
2022-10-17T21:56:15.707Z,100209.78
2022-10-17T21:59:17.455Z,100216.16
2022-10-17T22:02:19.319Z,100203.28
2022-10-17T22:05:21.169Z,100200.41
2022-10-17T22:08:23.024Z,100198.41
2022-10-17T22:11:28.155Z,100196.69
2022-10-17T22:14:29.878Z,100185.19
2022-10-17T22:17:31.796Z,100195.41
2022-10-17T22:20:34.886Z,100193.69
2022-10-17T22:23:38.193Z,100185.19
2022-10-17T22:26:40.642Z,100187.25
2022-10-17T22:29:42.334Z,100180.88
2022-10-17T22:32:44.077Z,100187.09
2022-10-17T22:35:46.186Z,100179.84
2022-10-17T22:38:48.448Z,100189.75
2022-10-17T22:41:50.186Z,100177.69
2022-10-17T22:44:51.860Z,100180.94
2022-10-17T22:47:54.038Z,100183.50
2022-10-17T22:50:57.793Z,100181.97
2022-10-17T22:53:59.554Z,100177.63
2022-10-17T22:57:01.257Z,100175.78
2022-10-17T23:00:07.656Z,100170.09
2022-10-17T23:03:10.833Z,100168.44
2022-10-17T23:06:13.324Z,100156.38
2022-10-17T23:09:15.289Z,100155.34
2022-10-17T23:12:17.040Z,100157.84
2022-10-17T23:15:18.852Z,100148.13
2022-10-17T23:18:21.468Z,100138.53
2022-10-17T23:21:23.815Z,100133.69
2022-10-17T23:24:25.636Z,100138.91
2022-10-17T23:27:27.365Z,100133.69
2022-10-17T23:30:29.481Z,100132.22
2022-10-17T23:33:31.223Z,100134.59
2022-10-17T23:39:39.481Z,100127.63
2022-10-17T23:42:41.216Z,100130.81
2022-10-17T23:45:42.985Z,100117.72
2022-10-17T23:48:44.736Z,100124.56
2022-10-17T23:51:46.415Z,100120.09
2022-10-17T23:54:48.251Z,100127.81
2022-10-17T23:57:50.036Z,100127.50
